sensor_id;sensor_type;location;lat;lon;timestamp;P1;durP1;ratioP1;P2;durP2;ratioP2
24635;SDS011;12772;49.794;10.024;2022-12-05T00:01:28;13.07;;;11.20;;
24635;SDS011;12772;49.794;10.024;2022-12-05T00:05:40;17.98;;;12.50;;
24635;SDS011;12772;49.794;10.024;2022-12-05T00:09:44;13.05;;;10.45;;
24635;SDS011;12772;49.794;10.024;2022-12-05T00:13:47;15.50;;;11.27;;
24635;SDS011;12772;49.794;10.024;2022-12-05T00:17:49;12.77;;;10.40;;
24635;SDS011;12772;49.794;10.024;2022-12-05T00:21:52;14.25;;;11.10;;
24635;SDS011;12772;49.794;10.024;2022-12-05T00:25:54;11.35;;;10.15;;
24635;SDS011;12772;49.794;10.024;2022-12-05T00:29:56;12.52;;;10.65;;
24635;SDS011;12772;49.794;10.024;2022-12-05T00:33:59;15.52;;;12.02;;
24635;SDS011;12772;49.794;10.024;2022-12-05T00:38:02;12.07;;;10.40;;
24635;SDS011;12772;49.794;10.024;2022-12-05T00:42:04;12.80;;;10.75;;
24635;SDS011;12772;49.794;10.024;2022-12-05T00:46:07;16.48;;;12.23;;
24635;SDS011;12772;49.794;10.024;2022-12-05T00:50:11;16.25;;;12.35;;
24635;SDS011;12772;49.794;10.024;2022-12-05T00:54:14;12.50;;;10.70;;
24635;SDS011;12772;49.794;10.024;2022-12-05T00:58:17;11.73;;;9.95;;
24635;SDS011;12772;49.794;10.024;2022-12-05T01:02:19;12.57;;;10.77;;
24635;SDS011;12772;49.794;10.024;2022-12-05T01:06:21;14.35;;;12.10;;
24635;SDS011;12772;49.794;10.024;2022-12-05T01:10:24;15.38;;;11.93;;
24635;SDS011;12772;49.794;10.024;2022-12-05T01:14:26;14.15;;;12.00;;
24635;SDS011;12772;49.794;10.024;2022-12-05T01:18:28;13.65;;;11.80;;
24635;SDS011;12772;49.794;10.024;2022-12-05T01:22:31;19.13;;;13.15;;
24635;SDS011;12772;49.794;10.024;2022-12-05T01:26:33;14.77;;;11.60;;
24635;SDS011;12772;49.794;10.024;2022-12-05T01:30:38;13.55;;;10.63;;
24635;SDS011;12772;49.794;10.024;2022-12-05T01:34:41;16.95;;;12.35;;
24635;SDS011;12772;49.794;10.024;2022-12-05T01:38:43;12.75;;;11.20;;
24635;SDS011;12772;49.794;10.024;2022-12-05T01:42:45;20.40;;;14.80;;
24635;SDS011;12772;49.794;10.024;2022-12-05T01:46:49;13.23;;;11.25;;
24635;SDS011;12772;49.794;10.024;2022-12-05T01:50:52;17.38;;;13.07;;
24635;SDS011;12772;49.794;10.024;2022-12-05T01:54:55;17.15;;;12.68;;
24635;SDS011;12772;49.794;10.024;2022-12-05T01:59:00;13.68;;;11.50;;
24635;SDS011;12772;49.794;10.024;2022-12-05T02:03:08;16.42;;;12.68;;
24635;SDS011;12772;49.794;10.024;2022-12-05T02:07:14;16.98;;;12.38;;
24635;SDS011;12772;49.794;10.024;2022-12-05T02:25:24;16.73;;;11.98;;
24635;SDS011;12772;49.794;10.024;2022-12-05T02:38:38;17.13;;;12.30;;
24635;SDS011;12772;49.794;10.024;2022-12-05T02:42:51;17.48;;;11.90;;
24635;SDS011;12772;49.794;10.024;2022-12-05T02:46:57;18.95;;;13.02;;
24635;SDS011;12772;49.794;10.024;2022-12-05T02:51:01;16.52;;;12.15;;
24635;SDS011;12772;49.794;10.024;2022-12-05T02:55:06;20.00;;;13.50;;
24635;SDS011;12772;49.794;10.024;2022-12-05T02:59:09;16.85;;;12.18;;
24635;SDS011;12772;49.794;10.024;2022-12-05T03:03:13;19.17;;;12.30;;
24635;SDS011;12772;49.794;10.024;2022-12-05T03:07:19;17.08;;;12.70;;
24635;SDS011;12772;49.794;10.024;2022-12-05T03:11:24;17.50;;;13.23;;
24635;SDS011;12772;49.794;10.024;2022-12-05T03:15:31;15.15;;;12.10;;
24635;SDS011;12772;49.794;10.024;2022-12-05T03:24:03;16.00;;;11.23;;
24635;SDS011;12772;49.794;10.024;2022-12-05T03:28:10;18.95;;;12.70;;
24635;SDS011;12772;49.794;10.024;2022-12-05T03:32:30;22.25;;;13.52;;
24635;SDS011;12772;49.794;10.024;2022-12-05T03:36:39;15.75;;;11.73;;
24635;SDS011;12772;49.794;10.024;2022-12-05T03:45:07;19.40;;;12.82;;
24635;SDS011;12772;49.794;10.024;2022-12-05T03:49:17;16.60;;;12.02;;
24635;SDS011;12772;49.794;10.024;2022-12-05T03:53:36;14.60;;;10.98;;
24635;SDS011;12772;49.794;10.024;2022-12-05T03:58:01;18.17;;;12.60;;
24635;SDS011;12772;49.794;10.024;2022-12-05T04:02:15;18.42;;;12.20;;
24635;SDS011;12772;49.794;10.024;2022-12-05T04:06:54;14.27;;;11.23;;
24635;SDS011;12772;49.794;10.024;2022-12-05T04:11:03;17.50;;;11.95;;
24635;SDS011;12772;49.794;10.024;2022-12-05T04:15:11;15.77;;;11.50;;
24635;SDS011;12772;49.794;10.024;2022-12-05T04:19:25;14.05;;;10.82;;
24635;SDS011;12772;49.794;10.024;2022-12-05T04:23:52;16.48;;;12.25;;
24635;SDS011;12772;49.794;10.024;2022-12-05T04:32:37;14.38;;;11.10;;
24635;SDS011;12772;49.794;10.024;2022-12-05T04:36:48;17.80;;;12.32;;
24635;SDS011;12772;49.794;10.024;2022-12-05T04:41:05;15.48;;;11.05;;
24635;SDS011;12772;49.794;10.024;2022-12-05T04:45:12;17.92;;;11.98;;
24635;SDS011;12772;49.794;10.024;2022-12-05T04:49:21;17.58;;;11.95;;
24635;SDS011;12772;49.794;10.024;2022-12-05T04:53:26;15.70;;;10.90;;
24635;SDS011;12772;49.794;10.024;2022-12-05T04:57:32;19.08;;;13.10;;
24635;SDS011;12772;49.794;10.024;2022-12-05T05:01:43;19.92;;;13.23;;
24635;SDS011;12772;49.794;10.024;2022-12-05T05:05:50;19.23;;;12.60;;
24635;SDS011;12772;49.794;10.024;2022-12-05T05:09:55;21.00;;;13.85;;
24635;SDS011;12772;49.794;10.024;2022-12-05T05:13:57;19.42;;;12.50;;
24635;SDS011;12772;49.794;10.024;2022-12-05T05:17:59;18.40;;;12.10;;
24635;SDS011;12772;49.794;10.024;2022-12-05T05:22:01;17.58;;;12.23;;
24635;SDS011;12772;49.794;10.024;2022-12-05T05:26:03;22.10;;;13.60;;
24635;SDS011;12772;49.794;10.024;2022-12-05T05:30:05;20.40;;;13.35;;
24635;SDS011;12772;49.794;10.024;2022-12-05T05:34:08;18.83;;;12.55;;
24635;SDS011;12772;49.794;10.024;2022-12-05T05:38:11;19.15;;;12.30;;
24635;SDS011;12772;49.794;10.024;2022-12-05T05:42:13;20.88;;;13.02;;
24635;SDS011;12772;49.794;10.024;2022-12-05T05:46:17;16.95;;;11.15;;
24635;SDS011;12772;49.794;10.024;2022-12-05T05:50:20;15.38;;;11.00;;
24635;SDS011;12772;49.794;10.024;2022-12-05T05:54:22;17.75;;;10.70;;
24635;SDS011;12772;49.794;10.024;2022-12-05T05:58:24;15.90;;;9.45;;
24635;SDS011;12772;49.794;10.024;2022-12-05T06:02:30;13.13;;;8.50;;
24635;SDS011;12772;49.794;10.024;2022-12-05T06:06:33;13.32;;;8.90;;
24635;SDS011;12772;49.794;10.024;2022-12-05T06:10:37;11.65;;;9.13;;
24635;SDS011;12772;49.794;10.024;2022-12-05T06:14:39;11.93;;;8.88;;
24635;SDS011;12772;49.794;10.024;2022-12-05T06:18:41;16.50;;;9.95;;
24635;SDS011;12772;49.794;10.024;2022-12-05T06:22:43;14.35;;;10.88;;
24635;SDS011;12772;49.794;10.024;2022-12-05T06:26:45;14.70;;;10.55;;
24635;SDS011;12772;49.794;10.024;2022-12-05T06:30:47;15.82;;;11.15;;
24635;SDS011;12772;49.794;10.024;2022-12-05T06:34:49;14.30;;;10.13;;
24635;SDS011;12772;49.794;10.024;2022-12-05T06:38:51;14.93;;;10.77;;
24635;SDS011;12772;49.794;10.024;2022-12-05T06:42:54;14.98;;;10.55;;
24635;SDS011;12772;49.794;10.024;2022-12-05T06:46:56;16.88;;;11.15;;
24635;SDS011;12772;49.794;10.024;2022-12-05T06:50:58;16.38;;;11.52;;
24635;SDS011;12772;49.794;10.024;2022-12-05T06:55:00;14.50;;;11.00;;
24635;SDS011;12772;49.794;10.024;2022-12-05T06:59:02;17.98;;;12.32;;
24635;SDS011;12772;49.794;10.024;2022-12-05T07:03:04;15.98;;;12.02;;
24635;SDS011;12772;49.794;10.024;2022-12-05T07:07:06;17.45;;;12.68;;
24635;SDS011;12772;49.794;10.024;2022-12-05T07:11:09;18.40;;;12.52;;
24635;SDS011;12772;49.794;10.024;2022-12-05T07:15:11;19.33;;;12.75;;
24635;SDS011;12772;49.794;10.024;2022-12-05T07:19:13;21.65;;;14.95;;
24635;SDS011;12772;49.794;10.024;2022-12-05T07:23:15;21.98;;;15.68;;
24635;SDS011;12772;49.794;10.024;2022-12-05T07:27:17;20.75;;;15.18;;
24635;SDS011;12772;49.794;10.024;2022-12-05T07:31:20;24.02;;;16.05;;
24635;SDS011;12772;49.794;10.024;2022-12-05T07:35:23;23.83;;;15.32;;
24635;SDS011;12772;49.794;10.024;2022-12-05T07:39:25;24.55;;;16.67;;
24635;SDS011;12772;49.794;10.024;2022-12-05T07:43:27;22.60;;;14.25;;
24635;SDS011;12772;49.794;10.024;2022-12-05T07:47:29;20.65;;;13.13;;
24635;SDS011;12772;49.794;10.024;2022-12-05T07:51:31;21.98;;;13.63;;
24635;SDS011;12772;49.794;10.024;2022-12-05T07:55:36;22.00;;;13.90;;
24635;SDS011;12772;49.794;10.024;2022-12-05T07:59:38;20.05;;;13.57;;
24635;SDS011;12772;49.794;10.024;2022-12-05T08:03:40;22.75;;;14.63;;
24635;SDS011;12772;49.794;10.024;2022-12-05T08:07:43;29.00;;;20.27;;
24635;SDS011;12772;49.794;10.024;2022-12-05T08:11:45;25.17;;;17.52;;
24635;SDS011;12772;49.794;10.024;2022-12-05T08:15:47;21.02;;;13.43;;
24635;SDS011;12772;49.794;10.024;2022-12-05T08:19:49;17.55;;;12.43;;
24635;SDS011;12772;49.794;10.024;2022-12-05T08:23:51;18.02;;;13.00;;
24635;SDS011;12772;49.794;10.024;2022-12-05T08:27:53;17.23;;;12.60;;
24635;SDS011;12772;49.794;10.024;2022-12-05T08:31:56;16.00;;;11.52;;
24635;SDS011;12772;49.794;10.024;2022-12-05T08:36:02;16.35;;;12.27;;
24635;SDS011;12772;49.794;10.024;2022-12-05T08:40:05;16.00;;;11.57;;
24635;SDS011;12772;49.794;10.024;2022-12-05T08:44:07;13.98;;;10.40;;
24635;SDS011;12772;49.794;10.024;2022-12-05T08:48:15;14.10;;;10.35;;
24635;SDS011;12772;49.794;10.024;2022-12-05T08:52:17;13.70;;;10.15;;
24635;SDS011;12772;49.794;10.024;2022-12-05T08:56:19;11.70;;;9.50;;
24635;SDS011;12772;49.794;10.024;2022-12-05T09:00:22;15.75;;;11.18;;
24635;SDS011;12772;49.794;10.024;2022-12-05T09:04:24;19.65;;;12.15;;
24635;SDS011;12772;49.794;10.024;2022-12-05T09:08:26;15.07;;;10.98;;
24635;SDS011;12772;49.794;10.024;2022-12-05T09:12:28;18.83;;;12.40;;
24635;SDS011;12772;49.794;10.024;2022-12-05T09:16:34;18.48;;;12.90;;
24635;SDS011;12772;49.794;10.024;2022-12-05T09:20:38;19.40;;;12.90;;
24635;SDS011;12772;49.794;10.024;2022-12-05T09:24:40;22.70;;;14.23;;
24635;SDS011;12772;49.794;10.024;2022-12-05T09:28:42;20.60;;;13.45;;
24635;SDS011;12772;49.794;10.024;2022-12-05T09:32:45;16.85;;;12.43;;
24635;SDS011;12772;49.794;10.024;2022-12-05T09:36:47;19.27;;;13.73;;
24635;SDS011;12772;49.794;10.024;2022-12-05T09:41:10;20.05;;;12.30;;
24635;SDS011;12772;49.794;10.024;2022-12-05T09:45:27;17.67;;;11.88;;
24635;SDS011;12772;49.794;10.024;2022-12-05T09:49:37;22.42;;;13.82;;
24635;SDS011;12772;49.794;10.024;2022-12-05T09:53:51;16.02;;;11.80;;
24635;SDS011;12772;49.794;10.024;2022-12-05T09:57:57;17.58;;;11.80;;
24635;SDS011;12772;49.794;10.024;2022-12-05T10:06:45;19.15;;;13.77;;
24635;SDS011;12772;49.794;10.024;2022-12-05T10:15:13;18.05;;;12.82;;
24635;SDS011;12772;49.794;10.024;2022-12-05T10:19:29;14.02;;;10.80;;
24635;SDS011;12772;49.794;10.024;2022-12-05T10:23:38;16.17;;;11.02;;
24635;SDS011;12772;49.794;10.024;2022-12-05T10:28:02;18.05;;;11.88;;
24635;SDS011;12772;49.794;10.024;2022-12-05T10:32:18;17.08;;;11.63;;
24635;SDS011;12772;49.794;10.024;2022-12-05T10:36:24;16.80;;;11.27;;
24635;SDS011;12772;49.794;10.024;2022-12-05T10:40:26;17.00;;;11.27;;
24635;SDS011;12772;49.794;10.024;2022-12-05T10:44:39;14.57;;;10.85;;
24635;SDS011;12772;49.794;10.024;2022-12-05T10:48:41;14.93;;;10.88;;
24635;SDS011;12772;49.794;10.024;2022-12-05T10:52:43;13.80;;;10.23;;
24635;SDS011;12772;49.794;10.024;2022-12-05T10:56:47;12.32;;;10.05;;
24635;SDS011;12772;49.794;10.024;2022-12-05T11:01:12;10.90;;;9.30;;
24635;SDS011;12772;49.794;10.024;2022-12-05T11:05:16;10.95;;;9.02;;
24635;SDS011;12772;49.794;10.024;2022-12-05T11:09:29;10.68;;;8.82;;
24635;SDS011;12772;49.794;10.024;2022-12-05T11:13:33;11.75;;;9.13;;
24635;SDS011;12772;49.794;10.024;2022-12-05T11:17:36;12.77;;;9.07;;
24635;SDS011;12772;49.794;10.024;2022-12-05T11:21:41;13.88;;;9.40;;
24635;SDS011;12772;49.794;10.024;2022-12-05T11:25:43;14.73;;;10.55;;
24635;SDS011;12772;49.794;10.024;2022-12-05T11:29:53;17.00;;;12.40;;
24635;SDS011;12772;49.794;10.024;2022-12-05T11:34:02;17.30;;;13.48;;
24635;SDS011;12772;49.794;10.024;2022-12-05T11:38:12;16.52;;;12.75;;
24635;SDS011;12772;49.794;10.024;2022-12-05T11:46:40;19.95;;;13.82;;
24635;SDS011;12772;49.794;10.024;2022-12-05T11:51:08;19.27;;;13.13;;
24635;SDS011;12772;49.794;10.024;2022-12-05T11:59:33;19.88;;;14.60;;
24635;SDS011;12772;49.794;10.024;2022-12-05T12:08:28;18.92;;;13.65;;
24635;SDS011;12772;49.794;10.024;2022-12-05T12:12:47;17.85;;;13.05;;
24635;SDS011;12772;49.794;10.024;2022-12-05T12:25:43;19.33;;;13.80;;
24635;SDS011;12772;49.794;10.024;2022-12-05T12:30:11;23.13;;;15.55;;
24635;SDS011;12772;49.794;10.024;2022-12-05T12:43:23;19.15;;;13.38;;
24635;SDS011;12772;49.794;10.024;2022-12-05T12:47:50;19.17;;;12.93;;
24635;SDS011;12772;49.794;10.024;2022-12-05T12:52:11;21.70;;;14.68;;
24635;SDS011;12772;49.794;10.024;2022-12-05T12:56:28;20.75;;;14.75;;
24635;SDS011;12772;49.794;10.024;2022-12-05T13:05:25;18.73;;;13.02;;
24635;SDS011;12772;49.794;10.024;2022-12-05T13:13:50;18.70;;;13.40;;
24635;SDS011;12772;49.794;10.024;2022-12-05T13:17:54;23.73;;;15.27;;
24635;SDS011;12772;49.794;10.024;2022-12-05T13:21:56;29.30;;;19.42;;
24635;SDS011;12772;49.794;10.024;2022-12-05T13:25:59;33.45;;;22.60;;
24635;SDS011;12772;49.794;10.024;2022-12-05T13:30:14;25.67;;;18.42;;
24635;SDS011;12772;49.794;10.024;2022-12-05T13:38:30;18.15;;;13.90;;
24635;SDS011;12772;49.794;10.024;2022-12-05T13:43:00;18.88;;;13.73;;
24635;SDS011;12772;49.794;10.024;2022-12-05T13:47:04;16.65;;;12.43;;
24635;SDS011;12772;49.794;10.024;2022-12-05T13:51:32;16.45;;;11.32;;
24635;SDS011;12772;49.794;10.024;2022-12-05T13:55:55;15.95;;;12.20;;
24635;SDS011;12772;49.794;10.024;2022-12-05T14:04:20;13.35;;;10.10;;
24635;SDS011;12772;49.794;10.024;2022-12-05T14:16:58;13.50;;;10.30;;
24635;SDS011;12772;49.794;10.024;2022-12-05T14:25:36;13.25;;;10.00;;
24635;SDS011;12772;49.794;10.024;2022-12-05T14:30:00;11.98;;;9.05;;
24635;SDS011;12772;49.794;10.024;2022-12-05T14:38:28;12.48;;;9.95;;
24635;SDS011;12772;49.794;10.024;2022-12-05T14:42:36;10.90;;;9.48;;
24635;SDS011;12772;49.794;10.024;2022-12-05T14:46:43;9.43;;;7.70;;
24635;SDS011;12772;49.794;10.024;2022-12-05T14:50:50;8.32;;;6.85;;
24635;SDS011;12772;49.794;10.024;2022-12-05T14:54:54;7.57;;;6.80;;
24635;SDS011;12772;49.794;10.024;2022-12-05T14:59:05;7.60;;;6.80;;
24635;SDS011;12772;49.794;10.024;2022-12-05T15:03:20;6.75;;;6.05;;
24635;SDS011;12772;49.794;10.024;2022-12-05T15:07:32;7.47;;;5.95;;
24635;SDS011;12772;49.794;10.024;2022-12-05T15:11:37;7.10;;;6.40;;
24635;SDS011;12772;49.794;10.024;2022-12-05T15:19:44;12.50;;;8.77;;
24635;SDS011;12772;49.794;10.024;2022-12-05T15:24:13;13.65;;;10.80;;
24635;SDS011;12772;49.794;10.024;2022-12-05T15:28:17;10.63;;;9.50;;
24635;SDS011;12772;49.794;10.024;2022-12-05T15:32:20;11.40;;;9.70;;
24635;SDS011;12772;49.794;10.024;2022-12-05T15:36:27;13.15;;;9.90;;
24635;SDS011;12772;49.794;10.024;2022-12-05T15:40:35;10.32;;;9.20;;
24635;SDS011;12772;49.794;10.024;2022-12-05T15:44:40;11.10;;;8.82;;
24635;SDS011;12772;49.794;10.024;2022-12-05T15:48:42;12.18;;;10.25;;
24635;SDS011;12772;49.794;10.024;2022-12-05T15:52:45;10.82;;;9.40;;
24635;SDS011;12772;49.794;10.024;2022-12-05T15:57:14;11.95;;;9.70;;
24635;SDS011;12772;49.794;10.024;2022-12-05T16:01:22;11.25;;;9.52;;
24635;SDS011;12772;49.794;10.024;2022-12-05T16:05:28;10.65;;;9.00;;
24635;SDS011;12772;49.794;10.024;2022-12-05T16:09:39;10.05;;;8.55;;
24635;SDS011;12772;49.794;10.024;2022-12-05T16:14:04;11.05;;;8.82;;
24635;SDS011;12772;49.794;10.024;2022-12-05T16:18:18;9.73;;;8.50;;
24635;SDS011;12772;49.794;10.024;2022-12-05T16:22:26;12.52;;;8.27;;
24635;SDS011;12772;49.794;10.024;2022-12-05T16:26:29;8.02;;;7.22;;
24635;SDS011;12772;49.794;10.024;2022-12-05T16:30:31;8.13;;;7.32;;
24635;SDS011;12772;49.794;10.024;2022-12-05T16:34:35;8.95;;;7.60;;
24635;SDS011;12772;49.794;10.024;2022-12-05T16:38:37;8.95;;;7.55;;
24635;SDS011;12772;49.794;10.024;2022-12-05T16:42:42;8.10;;;7.30;;
24635;SDS011;12772;49.794;10.024;2022-12-05T16:46:44;8.27;;;7.13;;
24635;SDS011;12772;49.794;10.024;2022-12-05T16:50:46;7.18;;;6.18;;
24635;SDS011;12772;49.794;10.024;2022-12-05T16:54:48;7.40;;;6.35;;
24635;SDS011;12772;49.794;10.024;2022-12-05T16:58:51;7.90;;;6.95;;
24635;SDS011;12772;49.794;10.024;2022-12-05T17:02:54;7.43;;;6.57;;
24635;SDS011;12772;49.794;10.024;2022-12-05T17:06:57;6.80;;;6.10;;
24635;SDS011;12772;49.794;10.024;2022-12-05T17:10:59;7.70;;;6.55;;
24635;SDS011;12772;49.794;10.024;2022-12-05T17:15:03;9.57;;;6.50;;
24635;SDS011;12772;49.794;10.024;2022-12-05T17:19:05;7.32;;;6.63;;
24635;SDS011;12772;49.794;10.024;2022-12-05T17:23:13;6.32;;;5.72;;
24635;SDS011;12772;49.794;10.024;2022-12-05T17:27:16;7.60;;;6.40;;
24635;SDS011;12772;49.794;10.024;2022-12-05T17:31:19;15.80;;;12.45;;
24635;SDS011;12772;49.794;10.024;2022-12-05T17:35:22;14.05;;;11.10;;
24635;SDS011;12772;49.794;10.024;2022-12-05T17:39:24;10.07;;;8.90;;
24635;SDS011;12772;49.794;10.024;2022-12-05T17:43:27;14.07;;;9.57;;
24635;SDS011;12772;49.794;10.024;2022-12-05T17:47:29;8.93;;;7.55;;
24635;SDS011;12772;49.794;10.024;2022-12-05T17:51:31;9.85;;;7.75;;
24635;SDS011;12772;49.794;10.024;2022-12-05T17:55:33;9.77;;;8.15;;
24635;SDS011;12772;49.794;10.024;2022-12-05T17:59:35;10.95;;;8.70;;
24635;SDS011;12772;49.794;10.024;2022-12-05T18:03:37;11.45;;;9.82;;
24635;SDS011;12772;49.794;10.024;2022-12-05T18:07:39;11.95;;;9.75;;
24635;SDS011;12772;49.794;10.024;2022-12-05T18:11:43;11.00;;;8.95;;
24635;SDS011;12772;49.794;10.024;2022-12-05T18:15:45;12.35;;;9.85;;
24635;SDS011;12772;49.794;10.024;2022-12-05T18:19:48;11.25;;;9.07;;
24635;SDS011;12772;49.794;10.024;2022-12-05T18:23:50;13.57;;;11.25;;
24635;SDS011;12772;49.794;10.024;2022-12-05T18:27:52;10.45;;;9.35;;
24635;SDS011;12772;49.794;10.024;2022-12-05T18:31:55;11.48;;;9.98;;
24635;SDS011;12772;49.794;10.024;2022-12-05T18:36:03;10.95;;;9.80;;
24635;SDS011;12772;49.794;10.024;2022-12-05T18:40:08;14.07;;;10.75;;
24635;SDS011;12772;49.794;10.024;2022-12-05T18:44:10;10.85;;;8.88;;
24635;SDS011;12772;49.794;10.024;2022-12-05T18:48:13;11.13;;;9.95;;
24635;SDS011;12772;49.794;10.024;2022-12-05T18:52:14;10.32;;;9.23;;
24635;SDS011;12772;49.794;10.024;2022-12-05T18:56:37;10.43;;;8.10;;
24635;SDS011;12772;49.794;10.024;2022-12-05T19:00:39;9.43;;;7.90;;
24635;SDS011;12772;49.794;10.024;2022-12-05T19:04:41;8.85;;;7.95;;
24635;SDS011;12772;49.794;10.024;2022-12-05T19:08:44;9.90;;;8.68;;
24635;SDS011;12772;49.794;10.024;2022-12-05T19:12:46;8.65;;;7.50;;
24635;SDS011;12772;49.794;10.024;2022-12-05T19:16:49;8.70;;;7.65;;
24635;SDS011;12772;49.794;10.024;2022-12-05T19:20:52;11.85;;;9.05;;
24635;SDS011;12772;49.794;10.024;2022-12-05T19:24:54;8.20;;;7.32;;
24635;SDS011;12772;49.794;10.024;2022-12-05T19:28:56;12.07;;;8.20;;
24635;SDS011;12772;49.794;10.024;2022-12-05T19:32:59;8.77;;;7.90;;
24635;SDS011;12772;49.794;10.024;2022-12-05T19:37:01;10.63;;;8.30;;
24635;SDS011;12772;49.794;10.024;2022-12-05T19:41:04;11.73;;;10.05;;
24635;SDS011;12772;49.794;10.024;2022-12-05T19:45:07;10.05;;;8.20;;
24635;SDS011;12772;49.794;10.024;2022-12-05T19:49:10;12.25;;;9.18;;
24635;SDS011;12772;49.794;10.024;2022-12-05T19:53:14;10.57;;;8.23;;
24635;SDS011;12772;49.794;10.024;2022-12-05T19:57:16;10.35;;;9.18;;
24635;SDS011;12772;49.794;10.024;2022-12-05T20:01:19;9.73;;;8.73;;
24635;SDS011;12772;49.794;10.024;2022-12-05T20:05:26;11.20;;;9.25;;
24635;SDS011;12772;49.794;10.024;2022-12-05T20:09:29;11.13;;;9.55;;
24635;SDS011;12772;49.794;10.024;2022-12-05T20:13:31;9.85;;;8.70;;
24635;SDS011;12772;49.794;10.024;2022-12-05T20:17:34;11.90;;;9.05;;
24635;SDS011;12772;49.794;10.024;2022-12-05T20:21:36;9.15;;;8.07;;
24635;SDS011;12772;49.794;10.024;2022-12-05T20:25:39;8.98;;;7.88;;
24635;SDS011;12772;49.794;10.024;2022-12-05T20:29:41;9.93;;;7.85;;
24635;SDS011;12772;49.794;10.024;2022-12-05T20:33:44;9.27;;;7.43;;
24635;SDS011;12772;49.794;10.024;2022-12-05T20:37:47;7.43;;;6.35;;
24635;SDS011;12772;49.794;10.024;2022-12-05T20:41:49;7.82;;;7.00;;
24635;SDS011;12772;49.794;10.024;2022-12-05T20:45:51;8.57;;;6.85;;
24635;SDS011;12772;49.794;10.024;2022-12-05T20:49:53;8.57;;;6.97;;
24635;SDS011;12772;49.794;10.024;2022-12-05T20:53:57;7.43;;;6.30;;
24635;SDS011;12772;49.794;10.024;2022-12-05T20:58:00;7.28;;;6.13;;
24635;SDS011;12772;49.794;10.024;2022-12-05T21:02:02;6.15;;;5.55;;
24635;SDS011;12772;49.794;10.024;2022-12-05T21:06:07;6.22;;;5.63;;
24635;SDS011;12772;49.794;10.024;2022-12-05T21:10:11;6.43;;;5.40;;
24635;SDS011;12772;49.794;10.024;2022-12-05T21:14:13;6.32;;;5.72;;
24635;SDS011;12772;49.794;10.024;2022-12-05T21:18:15;5.97;;;5.38;;
24635;SDS011;12772;49.794;10.024;2022-12-05T21:22:17;7.05;;;5.70;;
24635;SDS011;12772;49.794;10.024;2022-12-05T21:26:19;6.85;;;6.18;;
24635;SDS011;12772;49.794;10.024;2022-12-05T21:30:22;5.25;;;4.85;;
24635;SDS011;12772;49.794;10.024;2022-12-05T21:34:24;5.32;;;4.82;;
24635;SDS011;12772;49.794;10.024;2022-12-05T21:38:26;6.40;;;5.35;;
24635;SDS011;12772;49.794;10.024;2022-12-05T21:42:28;5.72;;;4.80;;
24635;SDS011;12772;49.794;10.024;2022-12-05T21:46:30;6.65;;;5.93;;
24635;SDS011;12772;49.794;10.024;2022-12-05T21:50:32;7.57;;;6.85;;
24635;SDS011;12772;49.794;10.024;2022-12-05T21:54:38;7.25;;;6.28;;
24635;SDS011;12772;49.794;10.024;2022-12-05T21:58:40;7.25;;;6.38;;
24635;SDS011;12772;49.794;10.024;2022-12-05T22:02:43;7.97;;;6.72;;
24635;SDS011;12772;49.794;10.024;2022-12-05T22:06:45;6.38;;;5.70;;
24635;SDS011;12772;49.794;10.024;2022-12-05T22:10:47;7.07;;;6.13;;
24635;SDS011;12772;49.794;10.024;2022-12-05T22:14:49;7.20;;;6.30;;
24635;SDS011;12772;49.794;10.024;2022-12-05T22:18:51;7.15;;;6.18;;
24635;SDS011;12772;49.794;10.024;2022-12-05T22:22:53;7.35;;;6.55;;
24635;SDS011;12772;49.794;10.024;2022-12-05T22:26:55;6.65;;;5.78;;
24635;SDS011;12772;49.794;10.024;2022-12-05T22:30:58;6.10;;;5.50;;
24635;SDS011;12772;49.794;10.024;2022-12-05T22:35:01;6.35;;;5.72;;
24635;SDS011;12772;49.794;10.024;2022-12-05T22:39:03;5.43;;;4.93;;
24635;SDS011;12772;49.794;10.024;2022-12-05T22:43:05;6.25;;;5.65;;
24635;SDS011;12772;49.794;10.024;2022-12-05T22:47:07;6.45;;;5.38;;
24635;SDS011;12772;49.794;10.024;2022-12-05T22:51:09;5.60;;;4.95;;
24635;SDS011;12772;49.794;10.024;2022-12-05T22:55:12;4.68;;;4.28;;
24635;SDS011;12772;49.794;10.024;2022-12-05T22:59:14;5.03;;;4.55;;
24635;SDS011;12772;49.794;10.024;2022-12-05T23:03:16;5.00;;;4.50;;
24635;SDS011;12772;49.794;10.024;2022-12-05T23:07:18;5.18;;;4.53;;
24635;SDS011;12772;49.794;10.024;2022-12-05T23:11:20;6.43;;;4.95;;
24635;SDS011;12772;49.794;10.024;2022-12-05T23:15:23;4.97;;;4.47;;
24635;SDS011;12772;49.794;10.024;2022-12-05T23:19:25;5.00;;;4.57;;
24635;SDS011;12772;49.794;10.024;2022-12-05T23:23:27;5.20;;;4.70;;
24635;SDS011;12772;49.794;10.024;2022-12-05T23:27:30;5.78;;;4.55;;
24635;SDS011;12772;49.794;10.024;2022-12-05T23:31:33;5.07;;;4.57;;
24635;SDS011;12772;49.794;10.024;2022-12-05T23:35:36;4.45;;;4.05;;
24635;SDS011;12772;49.794;10.024;2022-12-05T23:39:38;4.90;;;3.88;;
24635;SDS011;12772;49.794;10.024;2022-12-05T23:43:40;3.80;;;3.50;;
24635;SDS011;12772;49.794;10.024;2022-12-05T23:47:43;3.90;;;3.53;;
24635;SDS011;12772;49.794;10.024;2022-12-05T23:51:45;3.47;;;3.17;;
24635;SDS011;12772;49.794;10.024;2022-12-05T23:55:49;3.90;;;3.60;;
24635;SDS011;12772;49.794;10.024;2022-12-05T23:59:51;3.83;;;3.50;;
